createdAt,value
2023-01-03T00:00:41.986Z,0.43
2023-01-03T00:03:14.348Z,0.20
2023-01-03T00:05:43.260Z,0.40
2023-01-03T00:08:12.583Z,0.17
2023-01-03T00:10:42.181Z,0.20
2023-01-03T00:13:09.451Z,0.38
2023-01-03T00:15:38.320Z,0.38
2023-01-03T00:18:06.629Z,0.70
2023-01-03T00:20:35.232Z,0.17
2023-01-03T00:23:03.527Z,0.50
2023-01-03T00:25:32.001Z,0.22
2023-01-03T00:28:01.584Z,0.30
2023-01-03T00:30:29.853Z,0.50
2023-01-03T00:32:58.118Z,0.30
2023-01-03T00:35:26.450Z,0.28
2023-01-03T00:37:54.693Z,0.47
2023-01-03T00:40:22.948Z,0.93
2023-01-03T00:43:09.009Z,0.50
2023-01-03T00:45:38.753Z,0.20
2023-01-03T00:48:07.052Z,0.52
2023-01-03T00:50:38.312Z,0.43
2023-01-03T00:53:06.571Z,0.35
2023-01-03T00:55:36.372Z,0.65
2023-01-03T00:58:04.590Z,0.40
2023-01-03T01:00:33.023Z,0.35
2023-01-03T01:03:02.704Z,0.45
2023-01-03T01:05:31.499Z,0.60
2023-01-03T01:07:59.759Z,0.28
2023-01-03T01:10:28.023Z,0.38
2023-01-03T01:12:57.081Z,0.20
2023-01-03T01:15:25.375Z,0.30
2023-01-03T01:17:53.613Z,0.38
2023-01-03T01:20:23.212Z,0.20
2023-01-03T01:22:51.436Z,0.28
2023-01-03T01:25:19.664Z,0.20
2023-01-03T01:27:48.007Z,0.93
2023-01-03T01:30:16.455Z,0.30
2023-01-03T01:32:44.651Z,0.28
2023-01-03T01:35:12.865Z,0.32
2023-01-03T01:37:42.505Z,0.50
2023-01-03T01:40:11.404Z,0.25
2023-01-03T01:42:57.424Z,0.35
2023-01-03T01:45:25.802Z,0.20
2023-01-03T01:47:55.260Z,0.10
2023-01-03T01:50:25.895Z,0.45
2023-01-03T01:52:57.760Z,0.30
2023-01-03T01:55:27.721Z,0.40
2023-01-03T01:57:56.067Z,0.38
2023-01-03T02:00:24.335Z,0.40
2023-01-03T02:02:54.132Z,0.35
2023-01-03T02:05:23.254Z,0.20
2023-01-03T02:07:52.527Z,0.40
2023-01-03T02:10:26.021Z,0.20
2023-01-03T02:13:07.439Z,0.15
2023-01-03T02:15:59.813Z,0.20
2023-01-03T02:18:37.481Z,0.10
2023-01-03T02:21:19.781Z,0.40
2023-01-03T02:24:07.141Z,0.50
2023-01-03T02:26:41.980Z,0.68
2023-01-03T02:29:36.647Z,0.40
2023-01-03T02:32:11.322Z,0.20
2023-01-03T02:34:42.462Z,0.25
2023-01-03T02:37:15.615Z,0.20
2023-01-03T02:39:48.330Z,0.20
2023-01-03T02:42:36.948Z,0.20
2023-01-03T02:45:09.640Z,0.20
2023-01-03T02:47:43.610Z,0.25
2023-01-03T02:50:14.747Z,0.10
2023-01-03T02:52:43.705Z,0.38
2023-01-03T02:55:14.364Z,0.13
2023-01-03T02:57:45.359Z,0.25
2023-01-03T03:00:15.224Z,0.20
2023-01-03T03:02:51.693Z,0.13
2023-01-03T03:05:23.682Z,0.22
2023-01-03T03:07:51.945Z,0.10
2023-01-03T03:10:37.834Z,0.13
2023-01-03T03:13:16.854Z,0.10
2023-01-03T03:15:51.633Z,0.28
2023-01-03T03:18:23.511Z,0.20
2023-01-03T03:21:08.733Z,0.10
2023-01-03T03:23:56.586Z,0.90
2023-01-03T03:26:25.901Z,0.20
2023-01-03T03:28:55.816Z,0.20
2023-01-03T03:31:29.381Z,0.35
2023-01-03T03:34:01.010Z,0.20
2023-01-03T03:36:34.719Z,0.28
2023-01-03T03:39:03.365Z,0.70
2023-01-03T03:41:53.106Z,0.20
2023-01-03T03:44:46.042Z,0.20
2023-01-03T03:47:19.198Z,0.20
2023-01-03T03:49:51.075Z,0.17
2023-01-03T03:52:21.149Z,0.20
2023-01-03T03:54:51.418Z,0.10
2023-01-03T03:57:22.737Z,0.17
2023-01-03T03:59:53.256Z,0.20
2023-01-03T04:02:22.390Z,0.10
2023-01-03T04:04:54.303Z,0.10
2023-01-03T04:07:22.542Z,0.45
2023-01-03T04:09:50.843Z,0.47
2023-01-03T04:12:19.164Z,0.10
2023-01-03T04:14:47.470Z,0.22
2023-01-03T04:17:15.714Z,0.10
2023-01-03T04:19:43.940Z,0.20
2023-01-03T04:22:13.534Z,0.00
2023-01-03T04:24:42.785Z,0.10
2023-01-03T04:27:11.051Z,0.10
2023-01-03T04:29:39.799Z,0.30
2023-01-03T04:32:08.624Z,0.00
2023-01-03T04:34:37.249Z,0.10
2023-01-03T04:37:05.549Z,0.30
2023-01-03T04:39:35.163Z,0.13
2023-01-03T04:42:23.423Z,0.10
2023-01-03T04:44:50.662Z,0.10
2023-01-03T04:47:18.871Z,0.10
2023-01-03T04:49:47.239Z,0.20
2023-01-03T04:52:15.754Z,0.40
2023-01-03T04:54:45.634Z,0.10
2023-01-03T04:57:13.867Z,0.10
2023-01-03T04:59:42.099Z,0.13
2023-01-03T05:02:10.533Z,0.10
2023-01-03T05:04:39.019Z,0.05
2023-01-03T05:07:07.339Z,0.70
2023-01-03T05:09:35.604Z,0.22
2023-01-03T05:12:05.338Z,0.20
2023-01-03T05:14:33.579Z,0.13
2023-01-03T05:17:01.920Z,0.32
2023-01-03T05:19:30.233Z,0.15
2023-01-03T05:22:16.361Z,0.32
2023-01-03T05:25:02.310Z,0.43
2023-01-03T05:27:31.982Z,0.32
2023-01-03T05:30:00.313Z,0.43
2023-01-03T05:32:29.234Z,0.20
2023-01-03T05:34:57.428Z,0.30
2023-01-03T05:37:25.650Z,0.13
2023-01-03T05:39:53.870Z,0.10
2023-01-03T05:42:22.088Z,0.38
2023-01-03T05:44:51.746Z,0.28
2023-01-03T05:47:20.545Z,0.10
2023-01-03T05:49:48.782Z,0.30
2023-01-03T05:52:17.056Z,0.30
2023-01-03T05:54:45.303Z,0.17
2023-01-03T05:57:13.516Z,0.13
2023-01-03T05:59:41.759Z,0.20
2023-01-03T06:02:11.520Z,0.25
2023-01-03T06:04:40.082Z,0.20
2023-01-03T06:07:08.337Z,0.30
2023-01-03T06:09:36.555Z,0.08
2023-01-03T06:12:04.789Z,0.10
2023-01-03T06:14:33.027Z,0.10
2023-01-03T06:17:18.804Z,0.15
2023-01-03T06:19:48.454Z,0.47
2023-01-03T06:22:16.688Z,0.40
2023-01-03T06:24:44.913Z,0.20
2023-01-03T06:27:13.149Z,0.57
2023-01-03T06:29:41.397Z,0.30
2023-01-03T06:32:10.196Z,0.63
2023-01-03T06:34:38.624Z,0.22
2023-01-03T06:37:08.545Z,0.50
2023-01-03T06:39:36.871Z,0.17
2023-01-03T06:42:19.185Z,0.10
2023-01-03T06:45:08.303Z,0.20
2023-01-03T06:47:54.136Z,0.17
2023-01-03T06:50:39.904Z,0.35
2023-01-03T06:53:14.304Z,0.00
2023-01-03T06:55:42.884Z,0.40
2023-01-03T06:58:11.408Z,0.20
2023-01-03T07:00:40.263Z,0.20
2023-01-03T07:03:11.521Z,0.28
2023-01-03T07:05:40.097Z,0.25
2023-01-03T07:08:08.382Z,0.25
2023-01-03T07:10:37.958Z,0.57
2023-01-03T07:13:23.720Z,0.20
2023-01-03T07:15:52.050Z,0.40
2023-01-03T07:18:20.407Z,0.32
2023-01-03T07:20:48.664Z,0.10
2023-01-03T07:23:16.927Z,0.30
2023-01-03T07:25:46.563Z,0.10
2023-01-03T07:28:15.206Z,0.20
2023-01-03T07:30:44.274Z,0.38
2023-01-03T07:33:13.959Z,0.28
2023-01-03T07:35:42.297Z,0.22
2023-01-03T07:38:11.094Z,0.50
2023-01-03T07:40:39.666Z,0.45
2023-01-03T07:43:28.394Z,0.30
2023-01-03T07:45:56.699Z,0.10
2023-01-03T07:48:25.006Z,0.43
2023-01-03T07:50:57.760Z,0.20
2023-01-03T07:53:26.412Z,0.30
2023-01-03T07:55:54.664Z,0.50
2023-01-03T07:58:24.277Z,0.35
2023-01-03T08:00:52.576Z,0.50
2023-01-03T08:03:20.802Z,0.38
2023-01-03T08:05:49.126Z,0.30
2023-01-03T08:08:17.365Z,0.40
2023-01-03T08:11:03.138Z,0.30
2023-01-03T08:13:32.776Z,0.30
2023-01-03T08:16:01.076Z,0.57
2023-01-03T08:18:29.897Z,0.52
2023-01-03T08:20:58.203Z,0.30
2023-01-03T08:23:27.099Z,0.25
2023-01-03T08:26:01.281Z,0.57
2023-01-03T08:28:29.700Z,0.43
2023-01-03T08:30:59.779Z,0.43
2023-01-03T08:33:29.923Z,0.30
2023-01-03T08:36:00.117Z,0.43
2023-01-03T08:38:30.857Z,0.25
2023-01-03T08:41:00.521Z,0.40
2023-01-03T08:43:29.714Z,0.17
2023-01-03T08:45:59.506Z,0.28
2023-01-03T08:48:27.831Z,0.50
2023-01-03T08:50:56.109Z,0.45
2023-01-03T08:53:24.418Z,0.88
2023-01-03T08:55:52.736Z,0.57
2023-01-03T08:58:20.928Z,0.28
2023-01-03T09:00:49.182Z,0.28
2023-01-03T09:03:19.432Z,0.60
2023-01-03T09:05:48.042Z,0.47
2023-01-03T09:08:18.450Z,0.40
2023-01-03T09:10:48.267Z,1.05
2023-01-03T09:13:16.849Z,0.30
2023-01-03T09:15:45.255Z,0.25
2023-01-03T09:18:13.514Z,0.30
2023-01-03T09:20:43.112Z,0.73
2023-01-03T09:23:11.408Z,0.47
2023-01-03T09:25:39.701Z,0.20
2023-01-03T09:28:07.983Z,0.30
2023-01-03T09:30:36.236Z,0.40
2023-01-03T09:33:04.950Z,0.28
2023-01-03T09:35:34.085Z,0.73
2023-01-03T09:38:03.727Z,0.35
2023-01-03T09:40:32.745Z,0.40
2023-01-03T09:43:19.902Z,0.68
2023-01-03T09:45:52.264Z,0.47
2023-01-03T09:48:22.173Z,0.77
2023-01-03T09:51:17.058Z,0.45
2023-01-03T09:53:58.876Z,0.50
2023-01-03T09:56:44.792Z,0.43
2023-01-03T09:59:31.810Z,0.47
2023-01-03T10:02:21.325Z,0.40
2023-01-03T10:05:00.912Z,0.35
2023-01-03T10:07:48.123Z,0.90
2023-01-03T10:10:19.826Z,0.43
2023-01-03T10:12:53.681Z,0.55
2023-01-03T10:15:27.649Z,0.40
2023-01-03T10:17:59.178Z,0.35
2023-01-03T10:20:33.402Z,0.50
2023-01-03T10:23:02.579Z,0.50
2023-01-03T10:25:32.253Z,0.30
2023-01-03T10:28:03.121Z,0.32
2023-01-03T10:30:35.824Z,0.80
2023-01-03T10:33:19.981Z,0.57
2023-01-03T10:35:48.425Z,0.47
2023-01-03T10:38:17.479Z,0.20
2023-01-03T10:40:48.271Z,0.38
2023-01-03T10:43:18.549Z,0.73
2023-01-03T10:45:56.788Z,0.30
2023-01-03T10:48:25.539Z,0.50
2023-01-03T10:50:54.293Z,0.50
2023-01-03T10:53:23.959Z,0.65
2023-01-03T10:55:54.815Z,0.55
2023-01-03T10:58:28.002Z,1.08
2023-01-03T11:01:11.746Z,0.65
2023-01-03T11:03:51.045Z,0.45
2023-01-03T11:06:19.876Z,0.45
2023-01-03T11:08:49.059Z,0.82
2023-01-03T11:11:29.603Z,0.30
2023-01-03T11:14:07.372Z,0.52
2023-01-03T11:16:35.734Z,1.23
2023-01-03T11:19:05.831Z,1.10
2023-01-03T11:21:37.454Z,0.70
2023-01-03T11:24:10.031Z,0.70
2023-01-03T11:26:44.198Z,0.32
2023-01-03T11:29:31.168Z,0.82
2023-01-03T11:32:06.108Z,0.80
2023-01-03T11:35:20.784Z,0.60
2023-01-03T11:37:33.892Z,0.47
2023-01-03T11:40:06.570Z,0.52
2023-01-03T11:42:45.367Z,0.57
2023-01-03T11:45:28.581Z,0.45
2023-01-03T11:48:01.795Z,1.25
2023-01-03T11:50:43.372Z,0.77
2023-01-03T11:53:18.125Z,0.77
2023-01-03T11:55:54.091Z,0.47
2023-01-03T11:58:46.212Z,0.40
2023-01-03T12:01:21.671Z,1.27
2023-01-03T12:03:58.664Z,0.22
2023-01-03T12:06:30.129Z,0.60
2023-01-03T12:09:10.417Z,1.00
2023-01-03T12:12:00.198Z,1.13
2023-01-03T12:14:32.849Z,0.70
2023-01-03T12:17:06.232Z,0.50
2023-01-03T12:19:36.851Z,0.63
2023-01-03T12:22:07.521Z,0.98
2023-01-03T12:24:38.103Z,0.63
2023-01-03T12:27:07.899Z,0.65
2023-01-03T12:29:42.024Z,1.10
2023-01-03T12:32:13.721Z,0.38
2023-01-03T12:34:47.037Z,0.40
2023-01-03T12:37:16.481Z,0.80
2023-01-03T12:39:50.212Z,0.40
2023-01-03T12:42:21.817Z,0.30
2023-01-03T12:44:51.571Z,0.50
2023-01-03T12:47:27.340Z,0.50
2023-01-03T12:49:57.476Z,0.77
2023-01-03T12:52:27.124Z,0.30
2023-01-03T12:54:57.589Z,0.73
2023-01-03T12:57:42.368Z,0.57
2023-01-03T13:00:21.844Z,0.68
2023-01-03T13:02:54.915Z,0.40
2023-01-03T13:05:26.449Z,0.35
2023-01-03T13:07:59.325Z,0.55
2023-01-03T13:10:30.222Z,0.50
2023-01-03T13:12:58.697Z,0.40
2023-01-03T13:15:35.701Z,0.63
2023-01-03T13:18:31.857Z,0.47
2023-01-03T13:21:00.810Z,0.52
2023-01-03T13:23:36.587Z,0.57
2023-01-03T13:26:32.072Z,0.88
2023-01-03T13:29:15.348Z,0.73
2023-01-03T13:31:43.738Z,0.60
2023-01-03T13:34:16.781Z,0.28
2023-01-03T13:37:03.616Z,0.60
2023-01-03T13:39:39.351Z,0.60
2023-01-03T13:42:08.056Z,0.70
2023-01-03T13:44:36.503Z,0.57
2023-01-03T13:47:05.369Z,1.05
2023-01-03T13:49:36.739Z,0.38
2023-01-03T13:52:07.086Z,0.60
2023-01-03T13:54:56.995Z,0.70
2023-01-03T13:57:38.350Z,0.68
2023-01-03T14:00:15.557Z,0.82
2023-01-03T14:03:02.506Z,0.60
2023-01-03T14:05:44.006Z,0.50
2023-01-03T14:08:21.633Z,1.02
2023-01-03T14:10:59.613Z,0.60
2023-01-03T14:13:32.605Z,0.60
2023-01-03T14:16:12.806Z,0.22
2023-01-03T14:18:42.785Z,0.30
2023-01-03T14:21:23.528Z,0.43
2023-01-03T14:24:00.836Z,0.73
2023-01-03T14:26:30.067Z,0.30
2023-01-03T14:28:58.379Z,0.30
2023-01-03T14:31:28.312Z,0.47
2023-01-03T14:33:58.598Z,0.45
2023-01-03T14:36:28.455Z,0.93
2023-01-03T14:38:58.188Z,0.22
2023-01-03T14:41:31.496Z,0.43
2023-01-03T14:44:04.314Z,0.57
2023-01-03T14:46:33.444Z,0.43
2023-01-03T14:49:04.016Z,0.30
2023-01-03T14:51:35.176Z,0.35
2023-01-03T14:54:04.259Z,0.25
2023-01-03T14:56:32.853Z,0.17
2023-01-03T14:59:01.930Z,0.40
2023-01-03T15:01:30.794Z,0.55
2023-01-03T15:03:59.726Z,0.40
2023-01-03T15:06:29.184Z,1.00
2023-01-03T15:08:59.967Z,0.43
2023-01-03T15:11:33.130Z,0.43
2023-01-03T15:14:03.737Z,0.80
2023-01-03T15:16:33.390Z,0.60
2023-01-03T15:19:09.218Z,0.90
2023-01-03T15:21:38.054Z,0.70
2023-01-03T15:24:14.155Z,0.40
2023-01-03T15:26:43.918Z,0.40
2023-01-03T15:29:14.524Z,0.90
2023-01-03T15:31:50.831Z,0.77
2023-01-03T15:34:19.902Z,0.57
2023-01-03T15:36:49.369Z,0.60
2023-01-03T15:39:20.874Z,0.75
2023-01-03T15:44:56.138Z,0.50
2023-01-03T15:47:26.368Z,0.40
2023-01-03T15:49:56.637Z,1.00
2023-01-03T15:52:24.969Z,0.38
2023-01-03T15:54:54.589Z,0.63
2023-01-03T15:57:23.596Z,0.50
2023-01-03T15:59:54.741Z,0.52
2023-01-03T16:02:24.604Z,0.60
2023-01-03T16:04:53.457Z,0.50
2023-01-03T16:07:21.794Z,0.75
2023-01-03T16:09:50.181Z,0.60
2023-01-03T16:12:22.394Z,0.88
2023-01-03T16:14:51.980Z,0.43
2023-01-03T16:17:25.025Z,0.60
2023-01-03T16:19:53.661Z,0.30
2023-01-03T16:22:41.347Z,0.80
2023-01-03T16:25:15.402Z,0.40
2023-01-03T16:27:45.098Z,0.50
2023-01-03T16:30:14.043Z,0.93
2023-01-03T16:32:42.388Z,0.75
2023-01-03T16:35:16.395Z,0.47
2023-01-03T16:37:45.018Z,0.60
2023-01-03T16:40:17.826Z,0.75
2023-01-03T16:42:47.649Z,0.60
2023-01-03T16:45:17.073Z,0.90
2023-01-03T16:47:45.796Z,0.40
2023-01-03T16:50:16.605Z,0.70
2023-01-03T16:52:47.245Z,0.80
2023-01-03T16:55:17.523Z,0.73
2023-01-03T16:57:53.598Z,0.80
2023-01-03T17:00:24.173Z,0.63
2023-01-03T17:02:52.849Z,0.93
2023-01-03T17:05:21.240Z,0.55
2023-01-03T17:07:50.798Z,0.63
2023-01-03T17:10:24.211Z,0.75
2023-01-03T17:12:54.013Z,0.68
2023-01-03T17:15:22.781Z,0.55
2023-01-03T17:17:51.142Z,0.52
2023-01-03T17:20:20.686Z,0.55
2023-01-03T17:22:51.858Z,0.95
2023-01-03T17:25:20.143Z,0.60
2023-01-03T17:27:50.603Z,0.85
2023-01-03T17:30:21.087Z,0.52
2023-01-03T17:32:49.435Z,0.70
2023-01-03T17:35:18.008Z,0.52
2023-01-03T17:38:23.431Z,0.47
2023-01-03T17:40:34.875Z,0.47
2023-01-03T17:43:03.693Z,0.50
2023-01-03T17:45:50.946Z,0.98
2023-01-03T17:48:37.127Z,1.00
2023-01-03T17:51:05.537Z,0.47
2023-01-03T17:53:33.892Z,0.50
2023-01-03T17:56:02.230Z,0.52
2023-01-03T17:58:32.828Z,0.55
2023-01-03T18:01:02.562Z,0.85
2023-01-03T18:03:31.188Z,1.23
2023-01-03T18:05:59.773Z,0.70
2023-01-03T18:08:28.052Z,0.50
2023-01-03T18:10:57.105Z,0.75
2023-01-03T18:13:27.035Z,0.60
2023-01-03T18:15:55.891Z,0.93
2023-01-03T18:18:26.773Z,0.60
2023-01-03T18:20:55.492Z,0.50
2023-01-03T18:23:27.025Z,0.63
2023-01-03T18:25:55.642Z,0.70
2023-01-03T18:28:25.368Z,0.80
2023-01-03T18:30:53.985Z,0.45
2023-01-03T18:33:22.484Z,0.65
2023-01-03T18:35:52.758Z,1.20
2023-01-03T18:38:28.151Z,0.52
2023-01-03T18:41:02.594Z,1.27
2023-01-03T18:43:34.108Z,0.63
2023-01-03T18:46:04.750Z,0.80
2023-01-03T18:48:33.317Z,0.88
2023-01-03T18:51:03.155Z,0.95
2023-01-03T18:53:32.377Z,0.52
2023-01-03T18:56:00.872Z,0.57
2023-01-03T18:58:32.807Z,0.90
2023-01-03T19:01:01.289Z,0.75
2023-01-03T19:03:30.879Z,0.70
2023-01-03T19:06:00.466Z,0.60
2023-01-03T19:08:32.320Z,0.75
2023-01-03T19:11:03.286Z,1.05
2023-01-03T19:13:49.936Z,0.77
2023-01-03T19:16:20.129Z,0.73
2023-01-03T19:18:48.533Z,0.98
2023-01-03T19:21:17.659Z,1.00
2023-01-03T19:23:48.259Z,1.13
2023-01-03T19:26:26.481Z,0.98
2023-01-03T19:28:58.072Z,0.80
2023-01-03T19:31:27.441Z,0.68
2023-01-03T19:33:55.748Z,1.00
2023-01-03T19:36:24.474Z,1.20
2023-01-03T19:38:54.100Z,0.52
2023-01-03T19:41:22.656Z,0.88
2023-01-03T19:43:51.807Z,1.02
2023-01-03T19:46:20.319Z,1.02
2023-01-03T19:48:48.735Z,0.73
2023-01-03T19:51:17.177Z,0.70
2023-01-03T19:53:45.440Z,0.98
2023-01-03T19:56:24.442Z,0.50
2023-01-03T19:58:55.442Z,1.00
2023-01-03T20:01:26.188Z,0.95
2023-01-03T20:03:55.179Z,0.47
2023-01-03T20:06:23.697Z,0.93
2023-01-03T20:08:52.600Z,0.60
2023-01-03T20:11:22.436Z,0.93
2023-01-03T20:13:52.136Z,0.82
2023-01-03T20:16:20.489Z,0.38
2023-01-03T20:18:48.786Z,1.20
2023-01-03T20:21:22.819Z,1.20
2023-01-03T20:23:53.219Z,1.50
2023-01-03T20:26:23.594Z,1.13
2023-01-03T20:28:54.306Z,1.77
2023-01-03T20:31:22.633Z,1.35
2023-01-03T20:33:52.089Z,0.70
2023-01-03T20:36:23.412Z,1.63
2023-01-03T20:38:53.827Z,1.35
2023-01-03T20:41:35.833Z,1.08
2023-01-03T20:44:07.345Z,0.38
2023-01-03T20:46:36.174Z,1.17
2023-01-03T20:49:05.402Z,0.80
2023-01-03T20:51:35.050Z,1.30
2023-01-03T20:54:03.331Z,1.13
2023-01-03T20:56:33.232Z,1.67
2023-01-03T20:59:01.544Z,1.13
2023-01-03T21:01:31.396Z,0.77
2023-01-03T21:03:59.780Z,1.63
2023-01-03T21:06:29.469Z,1.48
2023-01-03T21:08:57.760Z,0.93
2023-01-03T21:11:27.340Z,1.13
2023-01-03T21:13:55.735Z,1.75
2023-01-03T21:16:29.580Z,2.13
2023-01-03T21:19:02.354Z,1.33
2023-01-03T21:21:31.450Z,1.13
2023-01-03T21:23:59.913Z,0.70
2023-01-03T21:26:28.166Z,0.88
2023-01-03T21:28:56.448Z,1.20
2023-01-03T21:31:25.343Z,0.90
2023-01-03T21:33:54.017Z,1.80
2023-01-03T21:36:25.447Z,1.50
2023-01-03T21:38:53.926Z,1.30
2023-01-03T21:41:23.416Z,0.98
2023-01-03T21:43:51.732Z,1.27
2023-01-03T21:46:20.689Z,1.35
2023-01-03T21:48:49.168Z,1.08
2023-01-03T21:51:24.804Z,1.17
2023-01-03T21:54:02.979Z,1.58
2023-01-03T21:56:31.272Z,1.08
2023-01-03T21:58:59.583Z,0.60
2023-01-03T22:01:28.052Z,1.20
2023-01-03T22:04:14.261Z,2.00
2023-01-03T22:06:42.534Z,1.50
2023-01-03T22:09:32.628Z,1.17
2023-01-03T22:12:00.917Z,0.95
2023-01-03T22:14:29.257Z,0.95
2023-01-03T22:16:57.869Z,1.40
2023-01-03T22:19:26.247Z,0.82
2023-01-03T22:21:54.535Z,0.98
2023-01-03T22:24:24.164Z,1.45
2023-01-03T22:26:52.415Z,1.17
2023-01-03T22:29:20.715Z,0.95
2023-01-03T22:31:49.126Z,1.05
2023-01-03T22:34:17.371Z,0.60
2023-01-03T22:36:45.664Z,0.73
2023-01-03T22:39:13.967Z,0.40
2023-01-03T22:41:43.607Z,0.88
2023-01-03T22:44:12.554Z,0.88
2023-01-03T22:46:40.865Z,0.70
2023-01-03T22:49:09.214Z,0.68
2023-01-03T22:51:37.540Z,0.93
2023-01-03T22:54:05.934Z,0.88
2023-01-03T22:56:34.283Z,0.93
2023-01-03T22:59:04.775Z,0.80
2023-01-03T23:01:33.378Z,0.93
2023-01-03T23:04:03.372Z,1.02
2023-01-03T23:06:32.705Z,0.77
2023-01-03T23:09:01.746Z,0.95
2023-01-03T23:11:48.951Z,1.23
2023-01-03T23:14:19.972Z,0.63
2023-01-03T23:16:50.800Z,1.42
2023-01-03T23:19:20.406Z,1.58
2023-01-03T23:21:49.165Z,0.98
2023-01-03T23:24:19.245Z,1.58
2023-01-03T23:26:47.978Z,0.80
2023-01-03T23:29:16.305Z,0.75
2023-01-03T23:31:46.475Z,1.52
2023-01-03T23:34:15.201Z,1.15
2023-01-03T23:36:43.895Z,0.60
2023-01-03T23:39:13.949Z,1.17
2023-01-03T23:41:42.237Z,1.05
2023-01-03T23:44:10.761Z,1.63
2023-01-03T23:46:39.100Z,0.70
2023-01-03T23:49:09.024Z,0.93
2023-01-03T23:51:38.316Z,1.27
2023-01-03T23:54:06.654Z,1.42
2023-01-03T23:56:34.946Z,0.68
2023-01-03T23:59:03.843Z,0.60
